Observation data for Andrews on 11/19/2019      Previous  Date       Current Mesonet Observations  Soil Data  Daily Summary Page  Observations in Plain Language
KANS 190600Z 34003KT 10/M02 A2998 RMK A01 T01041019  RH  043%=      5-min Rain = 0
KANS 190605Z 36004KT 10/M01 A2998 RMK A01 T01041013  RH  045%=      5-min Rain = 0
KANS 190610Z 00005KT 10/M01 A2998 RMK A01 T00951006  RH  050%=      5-min Rain = 0
KANS 190615Z 00006KT 08/M00 A2998 RMK A01 T00831002  RH  055%=      5-min Rain = 0
KANS 190620Z 00006KT 08/M00 A2998 RMK A01 T00781003  RH  057%=      5-min Rain = 0
KANS 190625Z 00006KT 08/M01 A2997 RMK A01 T00791005  RH  056%=      5-min Rain = 0
KANS 190630Z 00005KT 08/M01 A2997 RMK A01 T00801006  RH  055%=      5-min Rain = 0
KANS 190635Z 36005KT 08/M01 A2997 RMK A01 T00811007  RH  055%=      5-min Rain = 0
KANS 190640Z 00005KT 08/M01 A2997 RMK A01 T00831007  RH  054%=      5-min Rain = 0
KANS 190645Z 36005KT 08/M01 A2997 RMK A01 T00811006  RH  055%=      5-min Rain = 0
KANS 190650Z 36005KT 08/M01 A2998 RMK A01 T00791006  RH  056%=      5-min Rain = 0
KANS 190655Z 35005KT 08/M01 A2998 RMK A01 T00781006  RH  056%=      5-min Rain = 0
KANS 190700Z 35005KT 08/M01 A2998 RMK A01 T00801007  RH  055%=      5-min Rain = 0
KANS 190705Z 35005KT 08/M01 A2998 RMK A01 T00821006  RH  054%=      5-min Rain = 0
KANS 190710Z 34004KT 08/M01 A2998 RMK A01 T00831006  RH  054%=      5-min Rain = 0
KANS 190715Z 35004KT 09/M01 A2998 RMK A01 T00851007  RH  053%=      5-min Rain = 0
KANS 190720Z 35004KT 09/M01 A2998 RMK A01 T00861008  RH  052%=      5-min Rain = 0
KANS 190725Z 34003KT 09/M01 A2998 RMK A01 T00871009  RH  051%=      5-min Rain = 0
KANS 190730Z 32003KT 09/M01 A2998 RMK A01 T00891011  RH  050%=      5-min Rain = 0
KANS 190735Z 32002KT 09/M01 A2998 RMK A01 T00871011  RH  051%=      5-min Rain = 0
KANS 190740Z 33001KT 09/01 A2998 RMK A01 T00870005  RH  057%=      5-min Rain = 0
KANS 190745Z 33000KT 09/02 A2998 RMK A01 T00860020  RH  064%=      5-min Rain = 0
KANS 190750Z 01000KT 08/02 A2998 RMK A01 T00840020  RH  065%=      5-min Rain = 0
KANS 190755Z 17001KT 08/01 A2998 RMK A01 T00780010  RH  063%=      5-min Rain = 0
KANS 190800Z 17000KT 07/00 A2998 RMK A01 T00730004  RH  062%=      5-min Rain = 0
KANS 190805Z 23000KT 07/00 A2998 RMK A01 T00710003  RH  063%=      5-min Rain = 0
KANS 190810Z 23000KT 07/01 A2998 RMK A01 T00720005  RH  063%=      5-min Rain = 0
KANS 190815Z 00000KT 07/01 A2998 RMK A01 T00730011  RH  066%=      5-min Rain = 0
KANS 190820Z 33002KT 07/01 A2998 RMK A01 T00730013  RH  066%=      5-min Rain = 0
KANS 190825Z 34003KT 07/00 A2998 RMK A01 T00650003  RH  065%=      5-min Rain = 0
KANS 190830Z 35004KT 06/00 A2998 RMK A01 T00580001  RH  068%=      5-min Rain = 0
KANS 190835Z 35004KT 06/00 A2998 RMK A01 T005600-0  RH  068%=      5-min Rain = 0
KANS 190840Z 34004KT 06/M00 A2998 RMK A01 T00621002  RH  065%=      5-min Rain = 0
KANS 190845Z 33005KT 07/M00 A2998 RMK A01 T00661002  RH  062%=      5-min Rain = 0
KANS 190850Z 33006KT 07/M00 A2998 RMK A01 T00681002  RH  062%=      5-min Rain = 0
KANS 190855Z 32007KT 07/00 A2998 RMK A01 T00660000  RH  064%=      5-min Rain = 0
KANS 190900Z 32007KT 06/00 A2998 RMK A01 T00620000  RH  065%=      5-min Rain = 0
KANS 190905Z 31007KT 06/00 A2998 RMK A01 T00620000  RH  066%=      5-min Rain = 0
KANS 190910Z 31006KT 06/00 A2998 RMK A01 T006200-0  RH  065%=      5-min Rain = 0
KANS 190915Z 32007KT 06/00 A2997 RMK A01 T006400-0  RH  064%=      5-min Rain = 0
KANS 190920Z 32007KT 07/00 A2997 RMK A01 T006600-0  RH  063%=      5-min Rain = 0
KANS 190925Z 33008KT 07/00 A2997 RMK A01 T006500-0  RH  064%=      5-min Rain = 0
KANS 190930Z 33008KT 06/00 A2997 RMK A01 T00620000  RH  065%=      5-min Rain = 0
KANS 190935Z 33009KT 06/00 A2997 RMK A01 T006000-0  RH  066%=      5-min Rain = 0
KANS 190940Z 33008KT 06/M00 A2997 RMK A01 T00581001  RH  066%=      5-min Rain = 0
KANS 190945Z 34008KT 06/M00 A2997 RMK A01 T00571001  RH  067%=      5-min Rain = 0
KANS 190950Z 34007KT 06/00 A2997 RMK A01 T00560000  RH  068%=      5-min Rain = 0
KANS 190955Z 35007KT 06/00 A2997 RMK A01 T00550001  RH  069%=      5-min Rain = 0
KANS 191000Z 34006KT 06/00 A2996 RMK A01 T00550001  RH  069%=      5-min Rain = 0
KANS 191005Z 32006KT 06/00 A2996 RMK A01 T00550001  RH  069%=      5-min Rain = 0
KANS 191010Z 32006KT 06/00 A2996 RMK A01 T00560001  RH  068%=      5-min Rain = 0
KANS 191015Z 32007KT 06/00 A2996 RMK A01 T00570002  RH  068%=      5-min Rain = 0
KANS 191020Z 32007KT 06/00 A2996 RMK A01 T00590001  RH  067%=      5-min Rain = 0
KANS 191025Z 32006KT 06/00 A2996 RMK A01 T00610001  RH  066%=      5-min Rain = 0
KANS 191030Z 30004KT 06/00 A2997 RMK A01 T00620001  RH  066%=      5-min Rain = 0
KANS 191035Z 31003KT 07/00 A2997 RMK A01 T00650000  RH  064%=      5-min Rain = 0
KANS 191040Z 32004KT 07/M00 A2997 RMK A01 T00671001  RH  063%=      5-min Rain = 0
KANS 191045Z 32005KT 07/M00 A2997 RMK A01 T00681001  RH  062%=      5-min Rain = 0
KANS 191050Z 33006KT 07/M00 A2996 RMK A01 T00671001  RH  063%=      5-min Rain = 0
KANS 191055Z 33005KT 07/00 A2996 RMK A01 T006500-0  RH  064%=      5-min Rain = 0
KANS 191100Z 33006KT 06/M00 A2996 RMK A01 T00641001  RH  064%=      5-min Rain = 0
KANS 191105Z 32006KT 06/00 A2996 RMK A01 T00610000  RH  066%=      5-min Rain = 0
KANS 191110Z 33006KT 06/00 A2996 RMK A01 T00590000  RH  067%=      5-min Rain = 0
KANS 191115Z 33005KT 06/00 A2996 RMK A01 T00590000  RH  067%=      5-min Rain = 0
KANS 191120Z 33005KT 06/00 A2996 RMK A01 T005800-0  RH  067%=      5-min Rain = 0
KANS 191125Z 33005KT 06/00 A2996 RMK A01 T00580000  RH  067%=      5-min Rain = 0
KANS 191130Z 33005KT 06/00 A2996 RMK A01 T005800-0  RH  067%=      5-min Rain = 0
KANS 191135Z 33005KT 06/00 A2996 RMK A01 T005800-0  RH  067%=      5-min Rain = 0
KANS 191140Z 34006KT 06/00 A2996 RMK A01 T005800-0  RH  067%=      5-min Rain = 0
KANS 191145Z 35006KT 06/M00 A2996 RMK A01 T00561001  RH  068%=      5-min Rain = 0
KANS 191150Z 35005KT 05/M00 A2996 RMK A01 T00531001  RH  069%=      5-min Rain = 0
KANS 191155Z 34004KT 05/M00 A2996 RMK A01 T00521001  RH  070%=      5-min Rain = 0
KANS 191200Z 34004KT 05/M00 A2996 RMK A01 T00521001  RH  069%=      5-min Rain = 0
KANS 191205Z 32003KT 05/M00 A2996 RMK A01 T00521001  RH  069%=      5-min Rain = 0
KANS 191210Z 30002KT 05/M00 A2996 RMK A01 T00511002  RH  069%=      5-min Rain = 0
KANS 191215Z 24001KT 05/M00 A2997 RMK A01 T00491003  RH  070%=      5-min Rain = 0
KANS 191220Z 00000KT 05/00 A2997 RMK A01 T004900-0  RH  071%=      5-min Rain = 0
KANS 191225Z 00000KT 05/00 A2997 RMK A01 T00520001  RH  070%=      5-min Rain = 0
KANS 191230Z 05001KT 05/M00 A2997 RMK A01 T00531002  RH  068%=      5-min Rain = 0
KANS 191235Z 06000KT 05/M00 A2997 RMK A01 T00531002  RH  068%=      5-min Rain = 0
KANS 191240Z 19001KT 05/M00 A2997 RMK A01 T00511004  RH  069%=      5-min Rain = 0
KANS 191245Z 20002KT 05/M01 A2997 RMK A01 T00461006  RH  070%=      5-min Rain = 0
KANS 191250Z 21002KT 04/M01 A2997 RMK A01 T00431005  RH  072%=      5-min Rain = 0
KANS 191255Z 23002KT 04/M00 A2998 RMK A01 T00411004  RH  073%=      5-min Rain = 0
KANS 191300Z 24002KT 04/00 A2998 RMK A01 T004100-0  RH  075%=      5-min Rain = 0
KANS 191305Z 25002KT 04/00 A2998 RMK A01 T00430002  RH  076%=      5-min Rain = 0
KANS 191310Z 26000KT 05/00 A2998 RMK A01 T00450002  RH  075%=      5-min Rain = 0
KANS 191315Z 22000KT 05/00 A2998 RMK A01 T00470002  RH  073%=      5-min Rain = 0
KANS 191320Z 22002KT 05/M00 A2998 RMK A01 T00451002  RH  072%=      5-min Rain = 0
KANS 191325Z 22002KT 04/M00 A2998 RMK A01 T00411002  RH  074%=      5-min Rain = 0
KANS 191330Z 22002KT 04/M00 A2998 RMK A01 T00421001  RH  075%=      5-min Rain = 0
KANS 191335Z 23003KT 04/00 A2998 RMK A01 T00430001  RH  075%=      5-min Rain = 0
KANS 191340Z 23002KT 04/00 A2998 RMK A01 T00440004  RH  076%=      5-min Rain = 0
KANS 191345Z 23003KT 04/00 A2998 RMK A01 T00440004  RH  076%=      5-min Rain = 0
KANS 191350Z 23004KT 04/00 A2999 RMK A01 T00430003  RH  076%=      5-min Rain = 0
KANS 191355Z 23004KT 04/00 A2999 RMK A01 T00430002  RH  075%=      5-min Rain = 0
KANS 191400Z 23003KT 04/00 A2999 RMK A01 T00440002  RH  075%=      5-min Rain = 0
KANS 191405Z 23003KT 05/00 A2999 RMK A01 T00460004  RH  075%=      5-min Rain = 0
KANS 191410Z 23003KT 05/01 A2999 RMK A01 T00520010  RH  075%=      5-min Rain = 0
KANS 191415Z 22003KT 06/01 A2999 RMK A01 T00590014  RH  074%=      5-min Rain = 0
KANS 191420Z 20003KT 07/02 A2999 RMK A01 T00670017  RH  071%=      5-min Rain = 0
KANS 191425Z 20002KT 08/02 A2999 RMK A01 T00750020  RH  069%=      5-min Rain = 0
KANS 191430Z 20002KT 08/02 A2999 RMK A01 T00830020  RH  065%=      5-min Rain = 0
KANS 191435Z 19003KT 09/02 A2999 RMK A01 T00900018  RH  061%=      5-min Rain = 0
KANS 191440Z 18004KT 10/02 A2999 RMK A01 T00990021  RH  059%=      5-min Rain = 0
KANS 191445Z 19005KT 11/03 A2999 RMK A01 T01070026  RH  058%=      5-min Rain = 0
KANS 191450Z 19005KT 11/03 A2999 RMK A01 T01140030  RH  057%=      5-min Rain = 0
KANS 191455Z 18004KT 12/03 A2999 RMK A01 T01190033  RH  056%=      5-min Rain = 0
KANS 191500Z 18006KT 12/04 A2999 RMK A01 T01240035  RH  055%=      5-min Rain = 0
KANS 191505Z 18006KT 13/04 A2999 RMK A01 T01290037  RH  054%=      5-min Rain = 0
KANS 191510Z 19006KT 13/04 A2999 RMK A01 T01330037  RH  053%=      5-min Rain = 0
KANS 191515Z 19007KT 14/04 A2999 RMK A01 T01380037  RH  051%=      5-min Rain = 0
KANS 191520Z 19006KT 14/04 A2999 RMK A01 T01420038  RH  050%=      5-min Rain = 0
KANS 191525Z 19006KT 15/04 A2999 RMK A01 T01480037  RH  048%=      5-min Rain = 0
KANS 191530Z 19008KT 15/03 A2999 RMK A01 T01500030  RH  045%=      5-min Rain = 0
KANS 191535Z 19006KT 15/03 A2999 RMK A01 T01540027  RH  043%=      5-min Rain = 0
KANS 191540Z 18006KT 16/03 A2999 RMK A01 T01580026  RH  042%=      5-min Rain = 0
KANS 191545Z 18006KT 16/02 A2999 RMK A01 T01640023  RH  039%=      5-min Rain = 0
KANS 191550Z 19006KT 17/02 A2999 RMK A01 T01680021  RH  038%=      5-min Rain = 0
KANS 191555Z 19006KT 17/02 A2999 RMK A01 T01710016  RH  036%=      5-min Rain = 0
KANS 191600Z 19007KT 18/02 A2999 RMK A01 T01750015  RH  034%=      5-min Rain = 0
KANS 191605Z 18006KT 18/01 A2999 RMK A01 T01810013  RH  033%=      5-min Rain = 0
KANS 191610Z 18007KT 19/01 A2999 RMK A01 T01860009  RH  031%=      5-min Rain = 0
KANS 191615Z 18007KT 19/01 A2999 RMK A01 T01880008  RH  030%=      5-min Rain = 0
KANS 191620Z 19007KT 19/01 A2999 RMK A01 T01920007  RH  029%=      5-min Rain = 0
KANS 191625Z 20006KT 20/01 A2999 RMK A01 T01950007  RH  029%=      5-min Rain = 0
KANS 191630Z 20008KT 20/M00 A2999 RMK A01 T02021001  RH  026%=      5-min Rain = 0
KANS 191635Z 20008KT 21/M01 A2999 RMK A01 T02051007  RH  024%=      5-min Rain = 0
KANS 191640Z 19009KT 21/M01 A2999 RMK A01 T02091008  RH  024%=      5-min Rain = 0
KANS 191645Z 19007KT 21/M01 A2998 RMK A01 T02121006  RH  023%=      5-min Rain = 0
KANS 191650Z 19007KT 22/M01 A2998 RMK A01 T02151007  RH  023%=      5-min Rain = 0
KANS 191655Z 20008KT 22/M01 A2998 RMK A01 T02211011  RH  021%=      5-min Rain = 0
KANS 191700Z 21008KT 22/M01 A2998 RMK A01 T02231014  RH  021%=      5-min Rain = 0
KANS 191705Z 21008KT 23/M02 A2998 RMK A01 T02251016  RH  020%=      5-min Rain = 0
KANS 191710Z 21008KT 23/M02 A2997 RMK A01 T02291018  RH  019%=      5-min Rain = 0
KANS 191715Z 22009KT 23/M02 A2997 RMK A01 T02311018  RH  019%=      5-min Rain = 0
KANS 191720Z 22008KT 23/M02 A2997 RMK A01 T02331016  RH  019%=      5-min Rain = 0
KANS 191725Z 21010KT 24/M02 A2996 RMK A01 T02351015  RH  019%=      5-min Rain = 0
KANS 191730Z 21008G13KT 23/M02 A2996 RMK A01 T02321016  RH  019%=      5-min Rain = 0
KANS 191735Z 22008G13KT 24/M02 A2996 RMK A01 T02361016  RH  019%=      5-min Rain = 0
KANS 191740Z 21010KT 24/M03 A2996 RMK A01 T02371025  RH  018%=      5-min Rain = 0
KANS 191745Z 22009KT 24/M02 A2996 RMK A01 T02391023  RH  018%=      5-min Rain = 0
KANS 191750Z 20009KT 24/M03 A2995 RMK A01 T02421032  RH  016%=      5-min Rain = 0
KANS 191755Z 22010KT 24/M05 A2995 RMK A01 T02421045  RH  015%=      5-min Rain = 0
KANS 191800Z 23010G15KT 24/M05 A2995 RMK A01 T02431049  RH  014%=      5-min Rain = 0
KANS 191805Z 22009G14KT 24/M05 A2994 RMK A01 T02441049  RH  014%=      5-min Rain = 0
KANS 191810Z 22009KT 24/M05 A2994 RMK A01 T02441047  RH  014%=      5-min Rain = 0
KANS 191815Z 23009KT 25/M05 A2994 RMK A01 T02461046  RH  014%=      5-min Rain = 0
KANS 191820Z 21008G13KT 25/M04 A2994 RMK A01 T02491044  RH  014%=      5-min Rain = 0
KANS 191825Z 21010KT 25/M05 A2994 RMK A01 T02491045  RH  014%=      5-min Rain = 0
KANS 191830Z 22009G14KT 25/M04 A2993 RMK A01 T02511042  RH  014%=      5-min Rain = 0
KANS 191835Z 23011KT 25/M04 A2993 RMK A01 T02521042  RH  014%=      5-min Rain = 0
KANS 191840Z 22011KT 25/M04 A2993 RMK A01 T02501042  RH  014%=      5-min Rain = 0
KANS 191845Z 22011G16KT 25/M04 A2992 RMK A01 T02511044  RH  014%=      5-min Rain = 0
KANS 191850Z 22012G17KT 25/M04 A2992 RMK A01 T02531044  RH  014%=      5-min Rain = 0
KANS 191855Z 23012G17KT 25/M05 A2992 RMK A01 T02521046  RH  014%=      5-min Rain = 0
KANS 191900Z 21011G19KT 25/M04 A2992 RMK A01 T02531044  RH  014%=      5-min Rain = 0
KANS 191905Z 21012KT 26/M05 A2991 RMK A01 T02561045  RH  013%=      5-min Rain = 0
KANS 191910Z 21011G16KT 25/M05 A2991 RMK A01 T02541047  RH  014%=      5-min Rain = 0
KANS 191915Z 19012KT 25/M05 A2991 RMK A01 T02521049  RH  013%=      5-min Rain = 0
KANS 191920Z 20013KT 25/M05 A299 RMK A01 T02481053  RH  013%=      5-min Rain = 0
KANS 191925Z 22011G16KT 25/M05 A299 RMK A01 T02511050  RH  013%=      5-min Rain = 0
KANS 191930Z 22013G18KT 25/M05 A299 RMK A01 T02531050  RH  013%=      5-min Rain = 0
KANS 191935Z 21012G17KT 25/M05 A299 RMK A01 T02531049  RH  013%=      5-min Rain = 0
KANS 191940Z 20011KT 26/M05 A2989 RMK A01 T02561048  RH  013%=      5-min Rain = 0
KANS 191945Z 21011KT 26/M05 A2989 RMK A01 T02571048  RH  013%=      5-min Rain = 0
KANS 191950Z 20013KT 26/M05 A2989 RMK A01 T02581051  RH  013%=      5-min Rain = 0
KANS 191955Z 21013KT 26/M05 A2989 RMK A01 T02571052  RH  013%=      5-min Rain = 0
KANS 192000Z 21013KT 26/M05 A2988 RMK A01 T02571052  RH  013%=      5-min Rain = 0
KANS 192005Z 21010G16KT 26/M05 A2988 RMK A01 T02591051  RH  013%=      5-min Rain = 0
KANS 192010Z 20011G16KT 26/M05 A2988 RMK A01 T02631051  RH  012%=      5-min Rain = 0
KANS 192015Z 20012G17KT 26/M05 A2987 RMK A01 T02611051  RH  013%=      5-min Rain = 0
KANS 192020Z 19011G16KT 26/M05 A2987 RMK A01 T02591050  RH  013%=      5-min Rain = 0
KANS 192025Z 19010KT 26/M05 A2987 RMK A01 T02591048  RH  013%=      5-min Rain = 0
KANS 192030Z 19011G16KT 26/M05 A2987 RMK A01 T02601046  RH  013%=      5-min Rain = 0
KANS 192035Z 21011KT 26/M04 A2987 RMK A01 T02601044  RH  013%=      5-min Rain = 0
KANS 192040Z 20011KT 26/M04 A2987 RMK A01 T02631043  RH  013%=      5-min Rain = 0
KANS 192045Z 18009G14KT 26/M05 A2986 RMK A01 T02631045  RH  013%=      5-min Rain = 0
KANS 192050Z 18011G17KT 26/M05 A2986 RMK A01 T02641045  RH  013%=      5-min Rain = 0
KANS 192055Z 21009KT 26/M05 A2986 RMK A01 T02631047  RH  013%=      5-min Rain = 0
KANS 192100Z 19010KT 26/M05 A2986 RMK A01 T02641045  RH  013%=      5-min Rain = 0
KANS 192105Z 19012G17KT 27/M05 A2985 RMK A01 T02651047  RH  013%=      5-min Rain = 0
KANS 192110Z 20011G16KT 27/M05 A2986 RMK A01 T02661049  RH  012%=      5-min Rain = 0
KANS 192115Z 21010G17KT 27/M05 A2985 RMK A01 T02661050  RH  012%=      5-min Rain = 0
KANS 192120Z 20010KT 26/M05 A2985 RMK A01 T02641050  RH  012%=      5-min Rain = 0
KANS 192125Z 19010KT 26/M05 A2985 RMK A01 T02621051  RH  013%=      5-min Rain = 0
KANS 192130Z 21009G15KT 26/M05 A2985 RMK A01 T02641050  RH  012%=      5-min Rain = 0
KANS 192135Z 20009KT 27/M05 A2985 RMK A01 T02661051  RH  012%=      5-min Rain = 0
KANS 192140Z 22010G15KT 27/M05 A2985 RMK A01 T02671053  RH  012%=      5-min Rain = 0
KANS 192145Z 21011G18KT 27/M06 A2985 RMK A01 T02661055  RH  012%=      5-min Rain = 0
KANS 192150Z 21009G17KT 27/M05 A2985 RMK A01 T02671052  RH  012%=      5-min Rain = 0
KANS 192155Z 22013G18KT 27/M06 A2984 RMK A01 T02651055  RH  012%=      5-min Rain = 0
KANS 192200Z 22011KT 26/M06 A2984 RMK A01 T02611055  RH  012%=      5-min Rain = 0
KANS 192205Z 20011KT 26/M06 A2984 RMK A01 T02611055  RH  012%=      5-min Rain = 0
KANS 192210Z 22010KT 26/M06 A2984 RMK A01 T02601055  RH  012%=      5-min Rain = 0
KANS 192215Z 21010G15KT 26/M05 A2984 RMK A01 T02601054  RH  012%=      5-min Rain = 0
KANS 192220Z 21011KT 26/M05 A2984 RMK A01 T02571054  RH  012%=      5-min Rain = 0
KANS 192225Z 21009KT 26/M05 A2984 RMK A01 T02551054  RH  013%=      5-min Rain = 0
KANS 192230Z 21008KT 25/M05 A2984 RMK A01 T02511054  RH  013%=      5-min Rain = 0
KANS 192235Z 21007KT 25/M05 A2984 RMK A01 T02461054  RH  013%=      5-min Rain = 0
KANS 192240Z 21007KT 24/M05 A2984 RMK A01 T02411054  RH  014%=      5-min Rain = 0
KANS 192245Z 20006KT 24/M05 A2984 RMK A01 T02391053  RH  014%=      5-min Rain = 0
KANS 192250Z 19005KT 24/M05 A2984 RMK A01 T02351053  RH  014%=      5-min Rain = 0
KANS 192255Z 19006KT 23/M05 A2984 RMK A01 T02331053  RH  015%=      5-min Rain = 0
KANS 192300Z 19006KT 23/M05 A2984 RMK A01 T02311049  RH  015%=      5-min Rain = 0
KANS 192305Z 19006KT 23/M05 A2984 RMK A01 T02311048  RH  015%=      5-min Rain = 0
KANS 192310Z 18005KT 23/M05 A2984 RMK A01 T02291046  RH  016%=      5-min Rain = 0
KANS 192315Z 18005KT 23/M04 A2984 RMK A01 T02251044  RH  016%=      5-min Rain = 0
KANS 192320Z 17005KT 22/M04 A2984 RMK A01 T02211042  RH  017%=      5-min Rain = 0
KANS 192325Z 17005KT 22/M04 A2984 RMK A01 T02181040  RH  018%=      5-min Rain = 0
KANS 192330Z 18005KT 22/M04 A2984 RMK A01 T02151039  RH  018%=      5-min Rain = 0
KANS 192335Z 18005KT 21/M04 A2984 RMK A01 T02121038  RH  019%=      5-min Rain = 0
KANS 192340Z 18006KT 21/M04 A2984 RMK A01 T02101037  RH  019%=      5-min Rain = 0
KANS 192345Z 18007KT 21/M04 A2984 RMK A01 T02071036  RH  019%=      5-min Rain = 0
KANS 192350Z 17006KT 21/M04 A2984 RMK A01 T02051035  RH  020%=      5-min Rain = 0
KANS 192355Z 17006KT 20/M03 A2984 RMK A01 T02011034  RH  020%=      5-min Rain = 0
KANS 200000Z 18007KT 20/M03 A2984 RMK A01 T01981034  RH  021%=      5-min Rain = 0
KANS 200005Z 17007KT 19/M03 A2984 RMK A01 T01941033  RH  021%=      5-min Rain = 0
KANS 200010Z 17007KT 19/M03 A2984 RMK A01 T01931033  RH  022%=      5-min Rain = 0
KANS 200015Z 17007KT 19/M03 A2984 RMK A01 T01921032  RH  022%=      5-min Rain = 0
KANS 200020Z 17007KT 19/M03 A2984 RMK A01 T01911032  RH  022%=      5-min Rain = 0
KANS 200025Z 17006KT 19/M03 A2984 RMK A01 T01881031  RH  023%=      5-min Rain = 0
KANS 200030Z 17006KT 19/M03 A2984 RMK A01 T01851029  RH  023%=      5-min Rain = 0
KANS 200035Z 17005KT 18/M03 A2984 RMK A01 T01821028  RH  024%=      5-min Rain = 0
KANS 200040Z 18006KT 18/M03 A2984 RMK A01 T01801026  RH  025%=      5-min Rain = 0
KANS 200045Z 18007KT 18/M02 A2984 RMK A01 T01791024  RH  025%=      5-min Rain = 0
KANS 200050Z 18007KT 18/M02 A2985 RMK A01 T01791023  RH  026%=      5-min Rain = 0
KANS 200055Z 18007KT 18/M02 A2985 RMK A01 T01801022  RH  025%=      5-min Rain = 0
KANS 200100Z 18007KT 18/M02 A2985 RMK A01 T01821021  RH  025%=      5-min Rain = 0
KANS 200105Z 18007KT 18/M02 A2985 RMK A01 T01821020  RH  026%=      5-min Rain = 0
KANS 200110Z 18007KT 18/M02 A2985 RMK A01 T01821019  RH  026%=      5-min Rain = 0
KANS 200115Z 18006KT 18/M02 A2985 RMK A01 T01801018  RH  026%=      5-min Rain = 0
KANS 200120Z 18006KT 18/M02 A2985 RMK A01 T01781018  RH  027%=      5-min Rain = 0
KANS 200125Z 17006KT 17/M02 A2985 RMK A01 T01741018  RH  027%=      5-min Rain = 0
KANS 200130Z 18006KT 17/M02 A2985 RMK A01 T01701018  RH  028%=      5-min Rain = 0
KANS 200135Z 18006KT 17/M02 A2985 RMK A01 T01661017  RH  029%=      5-min Rain = 0
KANS 200140Z 17005KT 16/M02 A2985 RMK A01 T01621017  RH  030%=      5-min Rain = 0
KANS 200145Z 17006KT 16/M02 A2985 RMK A01 T01591017  RH  030%=      5-min Rain = 0
KANS 200150Z 17007KT 16/M02 A2985 RMK A01 T01591016  RH  031%=      5-min Rain = 0
KANS 200155Z 17007KT 16/M01 A2985 RMK A01 T01591014  RH  031%=      5-min Rain = 0
KANS 200200Z 17008KT 16/M01 A2985 RMK A01 T01621013  RH  031%=      5-min Rain = 0
KANS 200205Z 17008KT 16/M01 A2985 RMK A01 T01641012  RH  030%=      5-min Rain = 0
KANS 200210Z 18008KT 16/M01 A2985 RMK A01 T01641009  RH  031%=      5-min Rain = 0
KANS 200215Z 17008KT 16/M00 A2985 RMK A01 T01641004  RH  032%=      5-min Rain = 0
KANS 200220Z 17008KT 17/00 A2985 RMK A01 T01660003  RH  033%=      5-min Rain = 0
KANS 200225Z 17008KT 17/01 A2985 RMK A01 T01670006  RH  034%=      5-min Rain = 0
KANS 200230Z 17009KT 17/01 A2985 RMK A01 T01660011  RH  035%=      5-min Rain = 0
KANS 200235Z 18009KT 17/02 A2985 RMK A01 T01660018  RH  037%=      5-min Rain = 0
KANS 200240Z 18009KT 17/02 A2985 RMK A01 T01660023  RH  039%=      5-min Rain = 0
KANS 200245Z 18010KT 17/03 A2985 RMK A01 T01670027  RH  040%=      5-min Rain = 0
KANS 200250Z 18009KT 17/03 A2985 RMK A01 T01660029  RH  040%=      5-min Rain = 0
KANS 200255Z 18009KT 16/03 A2986 RMK A01 T01640032  RH  042%=      5-min Rain = 0
KANS 200300Z 18010KT 16/03 A2986 RMK A01 T01640034  RH  042%=      5-min Rain = 0
KANS 200305Z 18009KT 16/04 A2986 RMK A01 T01630036  RH  043%=      5-min Rain = 0
KANS 200310Z 18009KT 16/04 A2986 RMK A01 T01610038  RH  044%=      5-min Rain = 0
KANS 200315Z 18010KT 16/04 A2986 RMK A01 T01620041  RH  045%=      5-min Rain = 0
KANS 200320Z 18010G16KT 16/04 A2986 RMK A01 T01620044  RH  046%=      5-min Rain = 0
KANS 200325Z 18011KT 16/05 A2986 RMK A01 T01630046  RH  046%=      5-min Rain = 0
KANS 200330Z 18010KT 16/05 A2986 RMK A01 T01640048  RH  047%=      5-min Rain = 0
KANS 200335Z 18010KT 16/05 A2986 RMK A01 T01640048  RH  047%=      5-min Rain = 0
KANS 200340Z 18010KT 16/05 A2986 RMK A01 T01630050  RH  048%=      5-min Rain = 0
KANS 200345Z 18009KT 16/05 A2986 RMK A01 T01620051  RH  048%=      5-min Rain = 0
KANS 200350Z 18009KT 16/05 A2986 RMK A01 T01610053  RH  049%=      5-min Rain = 0
KANS 200355Z 18009KT 16/06 A2986 RMK A01 T01600055  RH  050%=      5-min Rain = 0
KANS 200400Z 18009G15KT 16/06 A2986 RMK A01 T01600058  RH  051%=      5-min Rain = 0
KANS 200405Z 18010KT 16/06 A2986 RMK A01 T01610061  RH  052%=      5-min Rain = 0
KANS 200410Z 18011G16KT 16/07 A2987 RMK A01 T01630065  RH  053%=      5-min Rain = 0
KANS 200415Z 19012G17KT 17/07 A2987 RMK A01 T01650067  RH  053%=      5-min Rain = 0
KANS 200420Z 18013KT 17/07 A2987 RMK A01 T01660069  RH  053%=      5-min Rain = 0
KANS 200425Z 18014G20KT 17/07 A2987 RMK A01 T01670071  RH  054%=      5-min Rain = 0
KANS 200430Z 18013G18KT 17/07 A2987 RMK A01 T01670072  RH  054%=      5-min Rain = 0
KANS 200435Z 18013G18KT 17/07 A2987 RMK A01 T01680074  RH  055%=      5-min Rain = 0
KANS 200440Z 18013KT 17/08 A2987 RMK A01 T01680076  RH  055%=      5-min Rain = 0
KANS 200445Z 18013G19KT 17/08 A2987 RMK A01 T01680077  RH  056%=      5-min Rain = 0
KANS 200450Z 18014KT 17/08 A2987 RMK A01 T01680078  RH  056%=      5-min Rain = 0
KANS 200455Z 19013G18KT 17/08 A2987 RMK A01 T01670080  RH  057%=      5-min Rain = 0
KANS 200500Z 18013G21KT 17/08 A2987 RMK A01 T01670081  RH  058%=      5-min Rain = 0
KANS 200505Z 18014G21KT 17/08 A2987 RMK A01 T01670082  RH  058%=      5-min Rain = 0
KANS 200510Z 19013G19KT 17/08 A2987 RMK A01 T01660084  RH  059%=      5-min Rain = 0
KANS 200515Z 18013G20KT 17/09 A2987 RMK A01 T01670085  RH  059%=      5-min Rain = 0
KANS 200520Z 19014KT 17/09 A2987 RMK A01 T01670086  RH  060%=      5-min Rain = 0
KANS 200525Z 19013G18KT 17/09 A2987 RMK A01 T01660087  RH  060%=      5-min Rain = 0
KANS 200530Z 18013G18KT 17/09 A2987 RMK A01 T01660088  RH  061%=      5-min Rain = 0
KANS 200535Z 19013G18KT 17/09 A2987 RMK A01 T01660088  RH  061%=      5-min Rain = 0
KANS 200540Z 19013G18KT 17/09 A2987 RMK A01 T01660089  RH  061%=      5-min Rain = 0
KANS 200545Z 19012G18KT 17/09 A2987 RMK A01 T01660090  RH  062%=      5-min Rain = 0
KANS 200550Z 19013G18KT 17/09 A2987 RMK A01 T01660090  RH  062%=      5-min Rain = 0
KANS 200555Z 19012G17KT 17/09 A2987 RMK A01 T01650091  RH  062%=      5-min Rain = 0

Page generated in 0.0092 seconds.